Time;durP1;ratioP1;P1;durP2;ratioP2;P2;SDS_P1;SDS_P2;PMS_P1;PMS_P2;Temp;Humidity;BMP_temperature;BMP_pressure;BME280_temperature;BME280_humidity;BME280_pressure;Samples;Min_cycle;Max_cycle;Signal;HPM_P1;HPM_P2
2022/05/15 00:02:47;;;;;;;2.95;2.20;;;13.30;91.00;;;;;;4993284;28;20047;-85
2022/05/15 00:05:12;;;;;;;3.28;2.00;;;13.30;91.20;;;;;;4992697;28;20039;-86
2022/05/15 00:07:38;;;;;;;3.08;1.95;;;13.30;91.30;;;;;;4992844;28;20133;-86
2022/05/15 00:10:06;;;;;;;2.25;1.90;;;13.30;91.30;;;;;;4976250;28;20039;-86
2022/05/15 00:12:32;;;;;;;3.80;2.65;;;13.20;91.60;;;;;;4991982;28;20030;-85
2022/05/15 00:14:58;;;;;;;3.38;2.08;;;13.20;91.60;;;;;;4959949;28;20034;-86
2022/05/15 00:17:23;;;;;;;3.65;2.30;;;13.20;91.50;;;;;;4989450;28;20034;-85
2022/05/15 00:19:49;;;;;;;3.97;2.47;;;13.10;91.70;;;;;;4956529;28;20035;-86
2022/05/15 00:22:15;;;;;;;2.03;1.80;;;13.10;91.90;;;;;;4940260;28;20070;-86
2022/05/15 00:24:41;;;;;;;5.40;2.42;;;13.00;91.80;;;;;;4940678;28;20068;-86
2022/05/15 00:27:07;;;;;;;2.65;2.05;;;13.00;92.00;;;;;;4951444;28;20035;-86
2022/05/15 00:29:34;;;;;;;3.50;2.10;;;12.90;92.20;;;;;;4992115;28;20033;-86
2022/05/15 00:32:00;;;;;;;2.20;2.05;;;12.90;92.50;;;;;;4987901;28;20030;-87
2022/05/15 00:34:26;;;;;;;4.43;2.22;;;12.80;92.50;;;;;;4988708;28;20030;-86
2022/05/15 00:36:52;;;;;;;3.38;2.25;;;12.80;92.50;;;;;;4988090;28;20093;-86
2022/05/15 00:39:18;;;;;;;3.90;2.08;;;12.80;92.80;;;;;;4988694;28;20117;-88
2022/05/15 00:41:44;;;;;;;3.63;2.05;;;12.80;92.80;;;;;;4991142;28;20457;-86
2022/05/15 00:44:10;;;;;;;3.72;2.17;;;12.70;92.90;;;;;;4986382;28;20148;-86
2022/05/15 00:46:40;;;;;;;5.10;2.10;;;12.60;93.30;;;;;;4996075;28;20027;-86
2022/05/15 00:49:11;;;;;;;4.57;2.10;;;12.60;93.60;;;;;;5004017;28;20134;-87
2022/05/15 00:51:56;;;;;;;3.00;2.38;;;12.50;93.90;;;;;;4959872;28;20129;-86
2022/05/15 00:54:46;;;;;;;5.00;2.53;;;12.60;93.90;;;;;;4990871;28;20700;-85
2022/05/15 00:57:31;;;;;;;2.30;2.10;;;12.60;94.00;;;;;;4987312;28;20034;-86
2022/05/15 01:00:04;;;;;;;5.18;3.05;;;12.60;94.00;;;;;;4974218;28;20092;-86
2022/05/15 01:02:35;;;;;;;3.88;2.42;;;12.50;94.00;;;;;;4989985;28;20185;-86
2022/05/15 01:05:02;;;;;;;6.28;2.55;;;12.50;94.60;;;;;;4973834;28;20492;-86
2022/05/15 01:07:28;;;;;;;3.42;2.67;;;12.50;94.70;;;;;;4983543;28;20031;-86
2022/05/15 01:09:55;;;;;;;3.78;2.35;;;12.30;94.80;;;;;;4989798;28;20110;-86
2022/05/15 01:12:21;;;;;;;3.33;2.22;;;12.30;95.20;;;;;;4957002;28;20030;-86
2022/05/15 01:14:48;;;;;;;5.07;2.55;;;12.20;95.50;;;;;;4978211;28;20034;-87
2022/05/15 01:17:14;;;;;;;4.95;2.53;;;12.10;95.50;;;;;;4973392;28;20018;-86
2022/05/15 01:19:43;;;;;;;6.10;2.45;;;12.10;95.80;;;;;;4976843;28;20703;-86
2022/05/15 01:22:15;;;;;;;7.72;3.10;;;12.10;95.70;;;;;;4985044;28;20060;-87
2022/05/15 01:24:42;;;;;;;6.10;2.17;;;12.10;95.90;;;;;;4994158;28;20401;-86
2022/05/15 01:27:11;;;;;;;2.67;2.35;;;12.20;95.90;;;;;;4993050;28;20030;-86
2022/05/15 01:29:44;;;;;;;5.00;2.58;;;12.10;95.60;;;;;;4939374;28;20501;-86
2022/05/15 01:32:12;;;;;;;3.95;2.88;;;12.10;96.00;;;;;;4954861;28;20030;-86
2022/05/15 01:34:39;;;;;;;2.92;2.58;;;12.10;96.80;;;;;;4939170;28;20041;-86
2022/05/15 01:37:07;;;;;;;3.88;2.42;;;12.00;96.80;;;;;;4938278;28;20062;-86
2022/05/15 01:39:34;;;;;;;6.25;3.03;;;12.00;97.10;;;;;;4971078;28;20102;-86
2022/05/15 01:42:02;;;;;;;7.53;3.35;;;11.90;97.30;;;;;;4938684;28;20062;-86
2022/05/15 01:44:28;;;;;;;4.47;2.85;;;11.90;98.10;;;;;;4966600;28;20078;-86
2022/05/15 01:46:55;;;;;;;3.42;2.90;;;11.80;98.70;;;;;;4993305;28;20117;-85
2022/05/15 01:49:22;;;;;;;7.47;2.78;;;11.70;98.90;;;;;;4977543;28;20121;-86
2022/05/15 01:51:49;;;;;;;4.13;2.80;;;11.60;99.00;;;;;;4977036;28;20049;-86
2022/05/15 01:54:15;;;;;;;4.43;2.88;;;11.60;99.00;;;;;;5010013;28;20033;-86
2022/05/15 01:56:41;;;;;;;2.90;2.70;;;11.50;98.70;;;;;;5009501;28;20382;-86
2022/05/15 01:59:09;;;;;;;7.65;3.40;;;11.50;99.50;;;;;;4993322;28;20400;-86
2022/05/15 02:01:36;;;;;;;5.70;2.80;;;11.50;99.90;;;;;;4993556;28;20036;-86
2022/05/15 02:04:03;;;;;;;3.83;2.55;;;11.40;99.90;;;;;;4993447;28;20030;-86
2022/05/15 02:06:29;;;;;;;3.03;2.50;;;11.40;99.90;;;;;;4974464;28;20141;-86
2022/05/15 02:08:55;;;;;;;3.97;3.00;;;11.30;99.90;;;;;;5009535;28;20129;-86
2022/05/15 02:11:22;;;;;;;4.55;3.10;;;11.40;99.90;;;;;;4987243;28;20034;-86
2022/05/15 02:13:48;;;;;;;6.60;3.03;;;11.40;99.90;;;;;;4993815;28;20045;-86
2022/05/15 02:16:16;;;;;;;4.82;3.22;;;11.40;99.90;;;;;;4977663;28;20393;-86
2022/05/15 02:18:45;;;;;;;7.18;3.55;;;11.40;99.90;;;;;;4961346;28;20030;-86
2022/05/15 02:21:12;;;;;;;5.70;2.70;;;11.40;99.90;;;;;;5005398;28;20042;-86
2022/05/15 02:23:37;;;;;;;8.15;2.90;;;11.40;99.90;;;;;;5013466;28;20030;-85
2022/05/15 02:26:03;;;;;;;4.88;2.80;;;11.40;99.90;;;;;;5013028;28;20029;-86
2022/05/15 02:28:29;;;;;;;4.47;3.00;;;11.40;99.90;;;;;;4980601;28;20044;-86
2022/05/15 02:30:55;;;;;;;3.47;3.15;;;11.40;99.90;;;;;;4980913;28;20056;-86
2022/05/15 02:33:22;;;;;;;4.35;2.70;;;11.30;99.90;;;;;;4980763;28;20145;-86
2022/05/15 02:35:48;;;;;;;4.22;2.70;;;11.30;99.90;;;;;;5004411;28;20393;-86
2022/05/15 02:38:14;;;;;;;8.57;3.22;;;11.20;99.90;;;;;;4941971;28;20035;-87
2022/05/15 02:40:41;;;;;;;5.85;3.38;;;11.10;99.90;;;;;;4946919;28;20030;-87
2022/05/15 02:43:07;;;;;;;7.18;3.40;;;11.00;99.90;;;;;;4978522;28;20034;-86
2022/05/15 02:45:33;;;;;;;5.43;3.40;;;11.00;99.90;;;;;;4941852;28;20034;-85
2022/05/15 02:47:59;;;;;;;6.80;3.08;;;10.90;99.90;;;;;;4960014;28;20045;-86
2022/05/15 02:53:09;;;;;;;7.82;3.45;;;10.90;99.90;;;;;;4965465;28;20424;-86
2022/05/15 02:55:35;;;;;;;6.25;3.13;;;10.90;99.90;;;;;;4960447;28;20621;-85
2022/05/15 02:58:02;;;;;;;7.30;4.10;;;10.90;99.90;;;;;;4976450;28;20125;-86
2022/05/15 03:00:29;;;;;;;6.60;3.28;;;10.80;99.90;;;;;;4961031;28;20401;-85
2022/05/15 03:02:55;;;;;;;5.70;3.35;;;10.80;99.90;;;;;;4992415;28;20041;-85
2022/05/15 03:05:22;;;;;;;4.78;3.20;;;10.80;99.90;;;;;;4960996;28;20503;-85
2022/05/15 03:07:49;;;;;;;3.88;3.15;;;10.80;99.90;;;;;;4941339;28;20030;-85
2022/05/15 03:10:18;;;;;;;5.93;3.20;;;10.80;99.90;;;;;;4957779;28;20057;-84
2022/05/15 03:12:44;;;;;;;4.95;3.30;;;10.80;99.90;;;;;;4941197;28;20073;-85
2022/05/15 03:15:14;;;;;;;5.47;3.30;;;10.80;99.90;;;;;;4957446;28;20169;-86
2022/05/15 03:17:41;;;;;;;8.15;3.60;;;10.70;99.90;;;;;;4943579;28;20030;-85
2022/05/15 03:20:08;;;;;;;6.00;3.60;;;10.70;99.90;;;;;;4992215;28;20125;-86
2022/05/15 03:22:35;;;;;;;4.85;3.63;;;10.60;99.90;;;;;;4960252;28;20026;-85
2022/05/15 03:25:01;;;;;;;7.57;3.80;;;10.60;99.90;;;;;;4960478;28;20030;-86
2022/05/15 03:27:27;;;;;;;4.60;3.90;;;10.60;99.90;;;;;;4976318;28;20038;-86
2022/05/15 03:29:53;;;;;;;5.90;3.88;;;10.60;99.90;;;;;;4960082;28;20034;-86
2022/05/15 03:32:19;;;;;;;7.53;3.78;;;10.60;99.90;;;;;;4976163;28;20030;-87
2022/05/15 03:34:45;;;;;;;6.15;4.10;;;10.50;99.90;;;;;;4975984;28;20088;-86
2022/05/15 03:37:10;;;;;;;7.43;4.22;;;10.50;99.90;;;;;;4973235;28;20433;-86
2022/05/15 03:39:37;;;;;;;6.75;4.30;;;10.50;99.90;;;;;;4976038;28;20129;-86
2022/05/15 03:42:03;;;;;;;4.40;3.47;;;10.40;99.90;;;;;;4975590;28;20117;-86
2022/05/15 03:44:29;;;;;;;7.30;4.00;;;10.40;99.90;;;;;;4975902;28;20088;-85
2022/05/15 03:46:54;;;;;;;7.07;4.28;;;10.40;99.90;;;;;;4999754;28;20407;-86
2022/05/15 03:49:20;;;;;;;6.30;4.47;;;10.40;99.90;;;;;;4972596;28;20034;-86
2022/05/15 03:51:46;;;;;;;9.45;4.43;;;10.40;99.90;;;;;;4988550;28;20049;-85
2022/05/15 03:54:12;;;;;;;6.95;4.18;;;10.40;99.90;;;;;;4988682;28;20121;-86
2022/05/15 03:56:52;;;;;;;8.88;4.35;;;10.40;99.90;;;;;;4956106;28;20196;-86
2022/05/15 03:59:32;;;;;;;6.45;4.55;;;10.40;99.90;;;;;;4989918;28;20067;-86
2022/05/15 04:01:58;;;;;;;6.70;4.13;;;10.40;99.90;;;;;;4979587;28;20034;-86
2022/05/15 04:04:28;;;;;;;8.48;4.30;;;10.50;99.90;;;;;;4986941;28;20026;-86
2022/05/15 04:06:54;;;;;;;6.13;3.88;;;10.50;99.90;;;;;;4999743;28;20030;-86
2022/05/15 04:09:21;;;;;;;6.25;4.38;;;10.60;99.90;;;;;;4976963;28;20412;-86
2022/05/15 04:11:47;;;;;;;4.70;4.10;;;10.60;99.90;;;;;;4975686;28;20078;-86
2022/05/15 04:14:14;;;;;;;4.20;3.40;;;10.60;99.90;;;;;;4959363;28;20163;-86
2022/05/15 04:16:39;;;;;;;6.53;3.55;;;10.70;99.90;;;;;;4991025;28;20124;-86
2022/05/15 04:19:06;;;;;;;5.18;3.88;;;10.70;99.90;;;;;;4997736;28;20180;-86
2022/05/15 04:21:37;;;;;;;4.10;3.70;;;10.70;99.90;;;;;;4994502;28;20058;-85
2022/05/15 04:24:14;;;;;;;5.82;4.07;;;10.60;99.90;;;;;;4994627;28;20026;-86
2022/05/15 04:26:41;;;;;;;6.97;3.88;;;10.60;99.90;;;;;;5002687;28;20025;-86
2022/05/15 04:29:08;;;;;;;5.05;4.22;;;10.60;99.90;;;;;;4978370;28;20515;-86
2022/05/15 04:31:34;;;;;;;11.02;4.32;;;10.60;99.90;;;;;;5010657;28;20519;-86
2022/05/15 04:34:04;;;;;;;4.90;3.80;;;10.60;99.90;;;;;;4994344;28;20686;-85
2022/05/15 04:36:30;;;;;;;6.53;3.53;;;10.60;99.90;;;;;;5010436;28;20501;-85
2022/05/15 04:38:56;;;;;;;4.45;3.22;;;10.70;99.90;;;;;;5006739;28;20037;-86
2022/05/15 04:41:22;;;;;;;6.10;3.40;;;10.80;99.90;;;;;;4956153;28;20039;-86
2022/05/15 04:43:49;;;;;;;5.28;3.50;;;10.80;99.90;;;;;;4939343;28;20631;-85
2022/05/15 04:46:15;;;;;;;5.68;3.40;;;10.80;99.90;;;;;;4939242;28;20065;-86
2022/05/15 04:48:41;;;;;;;6.45;3.60;;;10.90;99.90;;;;;;4946463;28;20058;-84
2022/05/15 04:51:06;;;;;;;5.53;3.40;;;11.00;99.90;;;;;;4987575;28;20544;-86
2022/05/15 04:53:32;;;;;;;4.38;3.45;;;11.10;99.90;;;;;;4987602;28;20035;-86
2022/05/15 04:55:59;;;;;;;4.20;3.00;;;11.10;99.90;;;;;;4987110;28;20437;-85
2022/05/15 04:58:25;;;;;;;4.75;3.28;;;11.20;99.90;;;;;;4954718;28;20041;-86
2022/05/15 05:00:51;;;;;;;7.03;3.40;;;11.30;99.90;;;;;;4973438;28;20106;-86
2022/05/15 05:03:17;;;;;;;3.35;3.05;;;11.40;99.90;;;;;;4954790;28;20034;-86
2022/05/15 05:05:42;;;;;;;5.50;3.30;;;11.50;99.90;;;;;;4970755;28;20034;-86
2022/05/15 05:08:10;;;;;;;4.00;2.80;;;11.60;99.90;;;;;;4966405;28;20037;-85
2022/05/15 05:10:36;;;;;;;4.72;2.95;;;11.70;99.90;;;;;;4969243;28;20038;-86
2022/05/15 05:13:02;;;;;;;5.55;3.10;;;11.80;99.90;;;;;;4958334;28;20034;-85
2022/05/15 05:15:28;;;;;;;3.92;3.10;;;11.90;99.90;;;;;;4957666;28;20041;-86
2022/05/15 05:17:55;;;;;;;4.95;3.28;;;12.00;99.90;;;;;;4973945;28;20084;-86
2022/05/15 05:20:21;;;;;;;6.00;3.45;;;12.00;99.90;;;;;;4988524;28;20027;-85
2022/05/15 05:22:47;;;;;;;5.18;2.75;;;12.10;99.90;;;;;;4954649;28;20031;-86
2022/05/15 05:25:13;;;;;;;3.80;3.15;;;12.20;99.90;;;;;;4954491;28;20502;-86
2022/05/15 05:27:41;;;;;;;6.05;2.80;;;12.40;99.90;;;;;;4962168;28;20116;-86
2022/05/15 05:30:16;;;;;;;7.93;4.00;;;12.60;99.90;;;;;;4981202;28;20113;-86
2022/05/15 05:32:43;;;;;;;5.13;3.08;;;13.00;99.90;;;;;;4956818;28;20030;-86
2022/05/15 05:35:10;;;;;;;4.32;3.33;;;13.40;99.70;;;;;;5005799;28;20052;-86
2022/05/15 05:37:36;;;;;;;4.75;2.95;;;13.90;99.10;;;;;;4953881;28;20461;-86
2022/05/15 05:40:03;;;;;;;3.90;2.80;;;14.30;98.50;;;;;;4954075;28;20124;-87
2022/05/15 05:42:28;;;;;;;3.97;3.15;;;14.80;97.10;;;;;;4983792;28;20109;-86
2022/05/15 05:44:54;;;;;;;9.95;3.85;;;15.30;96.20;;;;;;4985149;28;20058;-86
2022/05/15 05:47:25;;;;;;;5.35;3.22;;;15.80;95.00;;;;;;4956999;28;20042;-86
2022/05/15 05:49:51;;;;;;;3.28;2.70;;;16.20;93.80;;;;;;4972864;28;20447;-87
2022/05/15 05:52:16;;;;;;;4.80;2.78;;;16.70;93.20;;;;;;4986718;28;20034;-87
2022/05/15 05:54:42;;;;;;;5.03;2.90;;;17.10;91.40;;;;;;5005209;28;20108;-87
2022/05/15 05:57:08;;;;;;;6.90;3.38;;;17.50;91.20;;;;;;5009077;28;20040;-85
2022/05/15 05:59:34;;;;;;;4.47;2.70;;;17.90;90.30;;;;;;4972944;28;20070;-87
2022/05/15 06:01:59;;;;;;;4.40;2.92;;;18.20;90.80;;;;;;4978940;28;20039;-86
2022/05/15 06:04:41;;;;;;;5.15;3.35;;;18.60;89.60;;;;;;4970042;28;20035;-86
2022/05/15 06:07:12;;;;;;;5.13;2.92;;;19.00;87.70;;;;;;4957149;28;20046;-87
2022/05/15 06:09:40;;;;;;;5.20;3.20;;;19.20;84.90;;;;;;4970208;28;20048;-86
2022/05/15 06:12:06;;;;;;;4.88;3.03;;;19.60;83.70;;;;;;5003625;28;20040;-86
2022/05/15 06:14:32;;;;;;;6.25;3.60;;;19.90;79.60;;;;;;4993215;28;20046;-86
2022/05/15 06:16:58;;;;;;;2.78;2.50;;;20.00;79.30;;;;;;5009414;28;20082;-86
2022/05/15 06:19:24;;;;;;;3.97;2.50;;;20.20;78.80;;;;;;4966850;28;20481;-85
2022/05/15 06:21:49;;;;;;;7.32;3.05;;;20.60;76.70;;;;;;4990078;28;20061;-86
2022/05/15 06:24:15;;;;;;;4.88;2.50;;;20.90;74.90;;;;;;4990192;28;20503;-85
2022/05/15 06:26:41;;;;;;;6.40;3.08;;;21.10;73.00;;;;;;4989609;28;20030;-86
2022/05/15 06:29:07;;;;;;;4.35;2.33;;;21.40;71.60;;;;;;4956902;28;20201;-85
2022/05/15 06:31:33;;;;;;;2.63;2.42;;;21.70;70.60;;;;;;4964585;28;20034;-84
2022/05/15 06:33:58;;;;;;;2.72;2.45;;;22.00;69.40;;;;;;4976725;28;20041;-85
2022/05/15 06:36:24;;;;;;;4.03;2.47;;;22.30;67.20;;;;;;4964970;28;20632;-86
2022/05/15 06:38:50;;;;;;;4.80;2.55;;;22.40;67.00;;;;;;4972872;28;20092;-85
2022/05/15 06:41:16;;;;;;;5.72;2.25;;;22.60;66.00;;;;;;4977788;28;20058;-85
2022/05/15 06:43:42;;;;;;;6.28;2.17;;;22.90;65.00;;;;;;4966505;28;20105;-87
2022/05/15 06:46:07;;;;;;;2.85;1.90;;;23.20;64.10;;;;;;4955043;28;20667;-86
2022/05/15 06:48:35;;;;;;;8.10;2.42;;;23.50;63.00;;;;;;4994602;28;20124;-86
2022/05/15 06:51:02;;;;;;;4.97;2.22;;;23.60;61.70;;;;;;4983393;28;20034;-87
2022/05/15 06:53:28;;;;;;;4.20;2.50;;;23.30;59.50;;;;;;4960809;28;20134;-86
2022/05/15 06:58:38;;;;;;;4.78;2.38;;;23.30;59.60;;;;;;4991580;28;20053;-87
2022/05/15 07:01:06;;;;;;;4.32;2.33;;;23.20;60.40;;;;;;4973082;28;20022;-87
2022/05/15 07:03:32;;;;;;;5.03;2.35;;;23.10;62.30;;;;;;4988555;28;20392;-87
2022/05/15 07:05:57;;;;;;;6.47;2.72;;;23.30;61.60;;;;;;4980714;28;20109;-87
2022/05/15 07:08:23;;;;;;;3.30;2.28;;;23.40;60.20;;;;;;5002340;28;20041;-88
2022/05/15 07:10:49;;;;;;;5.95;2.00;;;23.50;61.50;;;;;;4982583;28;20027;-87
2022/05/15 07:13:15;;;;;;;3.97;1.88;;;23.80;59.30;;;;;;4970360;28;20552;-86
2022/05/15 07:15:40;;;;;;;6.00;2.45;;;24.00;59.30;;;;;;4984812;28;20049;-87
2022/05/15 07:18:07;;;;;;;2.83;2.08;;;24.10;59.50;;;;;;4984775;28;20040;-87
2022/05/15 07:20:33;;;;;;;3.85;3.03;;;24.20;57.20;;;;;;4961313;28;20046;-89
2022/05/15 07:22:59;;;;;;;3.80;1.75;;;24.20;55.90;;;;;;4993745;28;20037;-88
2022/05/15 07:25:25;;;;;;;4.40;1.92;;;24.20;58.20;;;;;;4959342;28;20034;-87
2022/05/15 07:27:51;;;;;;;4.20;2.20;;;24.40;58.00;;;;;;5008910;28;20022;-87
2022/05/15 07:30:17;;;;;;;3.92;2.25;;;24.70;57.70;;;;;;4976804;28;20501;-87
2022/05/15 07:32:43;;;;;;;4.60;2.28;;;24.70;57.20;;;;;;4983754;28;20022;-87
2022/05/15 07:35:09;;;;;;;3.10;2.03;;;24.70;57.40;;;;;;4962794;28;20033;-86
2022/05/15 07:37:35;;;;;;;4.28;2.20;;;24.80;56.80;;;;;;4960486;28;20046;-88
2022/05/15 07:40:01;;;;;;;2.65;1.92;;;25.00;55.60;;;;;;4998587;28;20033;-87
2022/05/15 07:42:27;;;;;;;8.20;2.53;;;25.00;57.20;;;;;;4998714;28;20387;-87
2022/05/15 07:44:57;;;;;;;3.53;2.10;;;25.20;56.30;;;;;;4984789;28;20714;-89
2022/05/15 07:47:24;;;;;;;7.13;2.67;;;24.70;56.50;;;;;;4977340;28;20038;-88
2022/05/15 07:49:50;;;;;;;2.97;2.58;;;24.60;56.80;;;;;;4992653;28;20045;-88
2022/05/15 07:52:15;;;;;;;4.80;2.72;;;24.50;54.90;;;;;;4993275;28;20039;-85
2022/05/15 07:54:41;;;;;;;3.47;2.20;;;24.30;55.20;;;;;;4963802;28;20041;-86
2022/05/15 07:57:07;;;;;;;3.55;2.15;;;24.10;58.00;;;;;;4980955;28;20113;-84
2022/05/15 07:59:33;;;;;;;6.07;2.35;;;23.90;57.60;;;;;;5000455;28;20037;-85
2022/05/15 08:01:59;;;;;;;5.50;2.83;;;23.70;57.80;;;;;;4982657;28;20030;-85
2022/05/15 08:04:26;;;;;;;4.57;2.08;;;23.60;58.30;;;;;;4964072;28;20085;-85
2022/05/15 08:09:36;;;;;;;3.78;2.30;;;23.20;58.70;;;;;;4979275;28;20039;-84
2022/05/15 08:12:01;;;;;;;15.43;8.40;;;23.10;61.00;;;;;;4991057;28;20034;-85
2022/05/15 08:14:29;;;;;;;6.63;2.83;;;23.00;60.70;;;;;;4989038;28;20034;-84
2022/05/15 08:16:55;;;;;;;4.50;2.40;;;22.90;60.90;;;;;;4986011;28;20094;-84
2022/05/15 08:24:49;;;;;;;5.22;2.20;;;22.60;59.50;;;;;;4992082;28;20058;-84
2022/05/15 08:27:14;;;;;;;7.72;2.55;;;22.50;63.00;;;;;;4966682;28;20429;-84
2022/05/15 08:29:40;;;;;;;6.35;2.63;;;22.40;60.50;;;;;;5002753;28;20528;-85
2022/05/15 08:32:07;;;;;;;6.40;2.20;;;22.30;60.30;;;;;;4964244;28;20112;-84
2022/05/15 08:34:34;;;;;;;6.22;2.33;;;22.20;62.90;;;;;;4976611;28;20034;-85
2022/05/15 08:37:02;;;;;;;4.88;2.30;;;22.00;62.00;;;;;;4993513;28;20073;-84
2022/05/15 08:39:29;;;;;;;3.65;2.30;;;22.00;62.90;;;;;;4998115;28;20151;-85
2022/05/15 08:42:01;;;;;;;2.65;2.00;;;21.70;61.80;;;;;;4965797;28;20034;-84
2022/05/15 08:44:33;;;;;;;6.55;2.70;;;21.60;63.50;;;;;;4991547;28;20068;-84
2022/05/15 08:47:22;;;;;;;2.88;2.17;;;21.50;62.50;;;;;;5013177;28;20026;-84
2022/05/15 08:49:57;;;;;;;3.92;2.47;;;21.60;65.10;;;;;;5007795;28;20054;-84
2022/05/15 08:52:41;;;;;;;3.33;2.00;;;21.70;63.10;;;;;;5006192;28;20034;-85
2022/05/15 08:55:24;;;;;;;3.28;1.90;;;21.70;63.90;;;;;;5005014;28;20030;-86
2022/05/15 08:58:13;;;;;;;3.13;1.73;;;21.90;65.30;;;;;;4976407;28;20038;-85
2022/05/15 09:00:43;;;;;;;6.75;2.22;;;22.00;62.00;;;;;;4955941;28;20397;-87
2022/05/15 09:03:18;;;;;;;2.55;1.85;;;22.10;60.90;;;;;;4971244;28;20046;-87
2022/05/15 09:06:04;;;;;;;;;;;22.20;62.90;;;;;;4978669;28;20034;-88
2022/05/15 09:09:14;;;;;;;4.10;1.98;;;22.30;60.10;;;;;;4993711;28;19909;-88
2022/05/15 09:11:56;;;;;;;5.22;2.60;;;22.30;61.40;;;;;;4924591;29;20058;-87
2022/05/15 09:14:33;;;;;;;6.45;2.15;;;22.40;58.70;;;;;;4947137;29;20032;-86
2022/05/15 09:17:12;;;;;;;2.40;1.60;;;22.30;58.50;;;;;;4940111;28;20145;-85
2022/05/15 09:19:37;;;;;;;4.80;1.80;;;22.20;59.20;;;;;;4990063;28;20038;-87
2022/05/15 09:22:04;;;;;;;3.70;1.55;;;22.10;58.60;;;;;;5000062;28;20201;-86
2022/05/15 09:24:38;;;;;;;3.58;2.05;;;22.00;59.00;;;;;;4958492;28;20058;-87
2022/05/15 09:27:14;;;;;;;3.35;1.80;;;21.90;59.80;;;;;;4987764;28;20048;-86
2022/05/15 09:29:39;;;;;;;2.00;1.60;;;21.70;59.10;;;;;;4983681;28;20075;-88
2022/05/15 09:32:27;;;;;;;2.30;1.38;;;21.70;58.50;;;;;;4969260;28;20038;-87
2022/05/15 09:34:56;;;;;;;3.50;1.40;;;21.60;59.40;;;;;;4990937;28;20089;-86
2022/05/15 09:40:22;;;;;;;3.70;1.83;;;21.60;59.30;;;;;;4973179;28;20226;-88
2022/05/15 09:45:55;;;;;;;3.55;1.52;;;21.70;59.00;;;;;;4978537;28;20373;-86
2022/05/15 09:48:28;;;;;;;3.70;1.77;;;21.70;58.90;;;;;;4972393;28;20695;-87
2022/05/15 09:51:04;;;;;;;2.85;1.70;;;21.70;58.40;;;;;;4978308;28;20022;-87
2022/05/15 09:53:49;;;;;;;5.20;1.85;;;21.60;59.60;;;;;;4981051;28;20030;-88
2022/05/15 09:56:21;;;;;;;2.50;1.95;;;21.60;59.40;;;;;;4987070;28;20366;-87
2022/05/15 09:59:05;;;;;;;4.47;1.88;;;21.70;60.40;;;;;;4962258;28;20410;-86
2022/05/15 10:01:49;;;;;;;2.67;1.90;;;21.70;63.90;;;;;;4988325;28;20055;-88
2022/05/15 10:04:37;;;;;;;4.05;2.00;;;21.70;58.30;;;;;;4987292;28;20535;-87
2022/05/15 10:07:05;;;;;;;3.17;2.00;;;21.60;58.40;;;;;;4975029;28;20026;-88
2022/05/15 10:09:35;;;;;;;2.80;2.00;;;21.60;60.30;;;;;;4987533;28;20029;-86
2022/05/15 10:12:15;;;;;;;8.38;2.30;;;21.60;61.50;;;;;;4983341;28;20037;-87
2022/05/15 10:14:52;;;;;;;4.53;1.95;;;21.60;62.70;;;;;;5003956;28;20378;-87
2022/05/15 10:17:21;;;;;;;2.35;1.75;;;21.70;62.30;;;;;;5000913;28;20389;-85
2022/05/15 10:19:55;;;;;;;5.20;1.75;;;21.70;62.50;;;;;;4987556;28;20137;-87
2022/05/15 10:22:31;;;;;;;2.55;1.70;;;21.80;62.60;;;;;;5003445;28;20039;-85
2022/05/15 10:25:05;;;;;;;3.90;1.88;;;21.90;57.50;;;;;;5003513;28;20027;-87
2022/05/15 10:27:35;;;;;;;3.20;1.97;;;21.90;60.70;;;;;;4960480;28;20673;-87
2022/05/15 10:30:16;;;;;;;4.60;1.92;;;21.90;57.60;;;;;;4983788;28;20092;-86
2022/05/15 10:32:55;;;;;;;3.50;2.03;;;21.90;59.60;;;;;;4998819;28;20038;-86
2022/05/15 10:35:35;;;;;;;4.70;1.80;;;21.90;58.80;;;;;;4975988;28;20030;-87
2022/05/15 10:38:22;;;;;;;4.15;2.20;;;22.00;59.30;;;;;;4975870;28;20046;-86
2022/05/15 10:41:00;;;;;;;5.68;1.88;;;22.10;59.80;;;;;;4980715;28;20022;-86
2022/05/15 10:43:26;;;;;;;3.60;1.80;;;22.10;57.90;;;;;;4981342;28;20389;-87
2022/05/15 10:46:15;;;;;;;2.35;1.80;;;22.00;57.80;;;;;;4994135;28;20036;-87
2022/05/15 10:48:45;;;;;;;5.15;1.77;;;22.10;61.80;;;;;;4978459;28;20034;-88
2022/05/15 10:51:22;;;;;;;2.15;1.70;;;22.30;59.80;;;;;;4992654;28;20032;-87
2022/05/15 10:59:59;;;;;;;4.63;1.80;;;22.70;57.20;;;;;;4995111;28;20034;-86
2022/05/15 11:03:03;;;;;;;4.60;2.10;;;22.60;56.90;;;;;;4979433;28;20070;-87
2022/05/15 11:05:31;;;;;;;4.60;2.33;;;22.30;56.10;;;;;;4991022;28;20035;-87
2022/05/15 11:08:19;;;;;;;4.25;2.08;;;22.30;59.10;;;;;;4966138;28;20441;-87
2022/05/15 11:10:52;;;;;;;4.60;2.28;;;22.40;58.20;;;;;;4962084;28;20026;-87
2022/05/15 11:13:30;;;;;;;3.95;1.98;;;22.30;59.10;;;;;;4987249;28;20393;-85
2022/05/15 11:16:18;;;;;;;3.42;1.77;;;22.30;55.60;;;;;;4981008;28;20405;-86
2022/05/15 11:19:00;;;;;;;5.00;1.80;;;22.40;57.70;;;;;;4992732;28;20030;-87
2022/05/15 11:21:34;;;;;;;1.70;1.60;;;22.50;57.70;;;;;;4983797;28;20030;-87
2022/05/15 11:24:35;;;;;;;6.43;1.90;;;22.30;54.70;;;;;;4993875;28;20034;-86
2022/05/15 11:27:10;;;;;;;2.08;1.40;;;22.40;58.70;;;;;;4975364;28;20026;-87
2022/05/15 11:29:42;;;;;;;2.88;1.60;;;22.50;56.30;;;;;;4974613;28;20042;-87
2022/05/15 11:32:32;;;;;;;3.17;1.55;;;22.60;57.30;;;;;;4985570;28;20030;-86
2022/05/15 11:35:21;;;;;;;3.88;2.25;;;22.70;54.50;;;;;;4981284;28;20030;-86
2022/05/15 11:38:04;;;;;;;2.03;1.77;;;23.00;57.80;;;;;;4993415;28;20137;-87
2022/05/15 11:40:43;;;;;;;2.10;1.23;;;23.20;55.10;;;;;;4973357;28;20500;-89
2022/05/15 11:43:28;;;;;;;3.15;1.70;;;23.40;57.10;;;;;;4981697;28;20034;-87
2022/05/15 11:46:06;;;;;;;3.20;1.77;;;23.70;55.20;;;;;;4992510;28;20027;-87
2022/05/15 11:48:37;;;;;;;4.18;2.47;;;23.90;54.50;;;;;;4983263;28;20096;-88
2022/05/15 11:51:12;;;;;;;6.93;1.65;;;24.00;51.50;;;;;;4991639;28;20401;-88
2022/05/15 11:53:55;;;;;;;3.05;1.67;;;24.00;53.80;;;;;;4974972;28;20031;-86
2022/05/15 11:56:22;;;;;;;4.22;1.45;;;24.00;55.20;;;;;;4977776;28;20049;-87
2022/05/15 11:59:18;;;;;;;2.78;1.35;;;24.20;56.10;;;;;;4977782;28;20023;-87
2022/05/15 12:01:51;;;;;;;4.03;1.85;;;24.40;54.50;;;;;;4993892;28;20485;-86
2022/05/15 12:04:46;;;;;;;3.60;2.00;;;24.50;49.30;;;;;;4960724;28;20129;-86
2022/05/15 12:07:14;;;;;;;3.42;1.42;;;24.50;52.50;;;;;;4968471;28;20483;-87
2022/05/15 12:09:40;;;;;;;2.78;1.52;;;24.50;53.80;;;;;;5006965;28;20026;-88
2022/05/15 12:12:21;;;;;;;3.72;1.63;;;24.70;51.50;;;;;;5000109;28;20097;-88
2022/05/15 12:15:20;;;;;;;3.38;1.70;;;24.80;50.10;;;;;;5004265;28;20485;-85
2022/05/15 12:17:49;;;;;;;2.80;1.95;;;24.60;50.50;;;;;;4985081;28;20033;-87
2022/05/15 12:20:49;;;;;;;2.85;1.65;;;24.70;51.80;;;;;;4995273;28;20026;-86
2022/05/15 12:24:26;;;;;;;3.97;1.67;;;24.70;50.40;;;;;;4983129;28;20181;-86
2022/05/15 12:27:07;;;;;;;3.53;2.15;;;24.70;49.40;;;;;;4972208;28;20038;-86
2022/05/15 12:29:38;;;;;;;3.72;1.92;;;24.70;52.10;;;;;;4988434;28;20385;-86
2022/05/15 12:32:13;;;;;;;1.95;1.45;;;24.70;49.10;;;;;;4998070;28;20037;-87
2022/05/15 12:34:47;;;;;;;3.83;1.67;;;24.90;53.50;;;;;;4992876;28;20031;-87
2022/05/15 12:37:34;;;;;;;4.40;1.55;;;25.30;55.00;;;;;;5005576;28;20030;-86
2022/05/15 12:40:02;;;;;;;6.45;1.55;;;25.70;48.30;;;;;;4992144;28;20041;-86
2022/05/15 12:42:41;;;;;;;2.83;1.65;;;25.90;48.80;;;;;;4979827;28;20484;-87
2022/05/15 12:45:11;;;;;;;2.85;1.50;;;26.20;51.50;;;;;;4983770;28;20125;-86
2022/05/15 12:47:38;;;;;;;5.63;2.22;;;26.30;52.30;;;;;;4990932;28;20053;-87
2022/05/15 12:50:14;;;;;;;3.08;1.40;;;26.30;46.30;;;;;;4942184;28;20045;-87
2022/05/15 12:52:39;;;;;;;2.15;1.30;;;26.30;50.00;;;;;;5004854;28;20064;-87
2022/05/15 12:55:20;;;;;;;4.60;2.42;;;26.40;51.80;;;;;;4975717;28;20069;-87
2022/05/15 12:57:49;;;;;;;3.13;1.70;;;26.50;49.20;;;;;;4990205;28;20041;-87
2022/05/15 13:00:18;;;;;;;4.55;1.73;;;26.40;47.40;;;;;;4957573;28;20070;-86
2022/05/15 13:02:45;;;;;;;2.47;1.83;;;26.20;45.80;;;;;;4989501;28;20072;-86
2022/05/15 13:05:24;;;;;;;2.55;1.17;;;26.00;47.50;;;;;;4990753;28;20038;-86
2022/05/15 13:08:01;;;;;;;3.72;1.60;;;25.90;49.20;;;;;;4995382;28;20528;-86
2022/05/15 13:10:28;;;;;;;3.15;1.85;;;25.90;51.00;;;;;;4959873;28;20079;-86
2022/05/15 13:13:04;;;;;;;4.25;1.60;;;25.80;45.50;;;;;;4997519;28;20397;-86
2022/05/15 13:15:32;;;;;;;2.25;1.40;;;25.60;46.00;;;;;;4990061;28;20030;-88
2022/05/15 13:18:08;;;;;;;3.65;1.77;;;25.70;50.00;;;;;;4990976;28;20026;-87
2022/05/15 13:21:07;;;;;;;5.05;1.90;;;26.00;49.60;;;;;;4954751;28;20094;-85
2022/05/15 13:23:39;;;;;;;3.00;1.52;;;26.10;45.80;;;;;;4938980;28;20078;-86
2022/05/15 13:26:07;;;;;;;3.33;1.50;;;25.90;45.70;;;;;;4975753;28;20031;-87
2022/05/15 13:28:35;;;;;;;1.45;1.13;;;25.90;47.70;;;;;;4993086;28;20026;-86
2022/05/15 13:31:01;;;;;;;1.83;1.73;;;25.80;49.30;;;;;;4977660;28;20030;-86
2022/05/15 13:33:29;;;;;;;1.65;1.27;;;25.90;49.90;;;;;;4978449;28;20038;-86